METAR Data
IDs: Format: Raw Decoded Include TAF

Data at: 1405 UTC 14 Dec 2019

PARC 141356Z AUTO 00000KT 10SM CLR M28/M32 A2967 RMK AO2 SLP152 T12831317 FZRANO
PARC 141256Z AUTO 32004KT 10SM CLR M29/M32 A2967 RMK AO2 SLP149 T12891317 FZRANO
PARC 141156Z AUTO 35003KT 9SM CLR M28/M32 A2966 RMK AO2 SLP147 T12831317 11272 21306 51006 FZRANO
PARC 141056Z AUTO 00000KT 9SM CLR M28/M31 A2966 RMK AO2 SLP149 T12831311 FZRANO
PARC 140956Z AUTO 34004KT 10SM CLR M27/M30 A2965 RMK AO2 SLP144 T12721300 FZRANO
PARC 140856Z AUTO 30003KT 8SM CLR M30/M33 A2965 RMK AO2 SLP144 T13001333 411831306 53004 FZRANO
PARC 140756Z AUTO 00000KT 9SM CLR M30/M33 A2964 RMK AO2 SLP140 T13001328 FZRANO
PARC 140656Z AUTO 31003KT 9SM CLR M29/M32 A2963 RMK AO2 SLP141 T12891317 FZRANO
PARC 140556Z AUTO 00000KT 9SM CLR M27/M30 A2963 RMK AO2 SLP133 T12721300 11239 21300 51004 FZRANO
PARC 140456Z AUTO 00000KT 9SM CLR M29/M32 A2963 RMK AO2 SLP136 T12891322 FZRANO
PARC 140356Z AUTO 00000KT 10SM CLR M28/M31 A2963 RMK AO2 SLP131 T12831311 FZRANO
PARC 140256Z AUTO 00000KT 9SM CLR M27/M30 A2962 RMK AO2 SLP128 T12721300 50001 FZRANO
PARC 140156Z AUTO 29004KT 10SM CLR M27/M30 A2962 RMK AO2 SLP128 T12721300 FZRANO
PARC 140056Z AUTO 31003KT 10SM CLR M26/M29 A2962 RMK AO2 SLP126 T12561289 FZRANO
PARC 132356Z AUTO 32007KT 10SM CLR M24/M28 A2962 RMK AO2 SLP122 T12441278 11228 21289 55002 FZRANO
PARC 132256Z AUTO 32004KT 7SM CLR M27/M29 A2961 RMK AO2 SLP120 T12671294 FZRANO
PARC 132156Z AUTO 31003KT 9SM CLR M28/M32 A2962 RMK AO2 SLP126 T12831317 FZRANO
PARC 132056Z AUTO 35005KT 8SM CLR M27/M29 A2962 RMK AO2 SLP123 T12671294 53010 FZRANO
PARC 131956Z AUTO 36004KT 10SM CLR M26/M29 A2960 RMK AO2 SLP116 T12611294 FZRANO
PARC 131856Z AUTO 00000KT 10SM CLR M28/M31 A2960 RMK AO2 SLP116 T12831311 FZRANO
PARC 131756Z AUTO 34005KT 10SM CLR M24/M28 A2959 RMK AO2 SLP108 T12391278 11206 21272 53004 FZRANO
PARC 131556Z AUTO 35004KT 10SM CLR M22/M28 A2957 RMK AO2 SLP100 T12221278 FZRANO
PARC 131456Z AUTO 00000KT 10SM CLR M23/M27 A2958 RMK AO2 SLP104 T12331272 53001 FZRANO
PARC 131356Z AUTO 22005KT 10SM CLR M22/M27 A2958 RMK AO2 SLP099 T12221272 FZRANO
PARC 131256Z AUTO VRB04KT 10SM CLR M22/M26 A2958 RMK AO2 SLP097 T12171261 FZRANO
PARC 130756Z AUTO 03009KT 10SM CLR M19/M24 A2960 RMK AO2 SLP097 T11891244 FZRANO
PARC 130656Z AUTO 03009KT 10SM CLR M18/M24 A2961 RMK AO2 SLP103 T11781239 FZRANO
PARC 130256Z AUTO 01008KT 10SM CLR M18/M24 A2967 RMK AO2 SLP120 T11831239 58016 FZRANO